地図

経路データ

SID SEASON NUMBER BASIN SUBBASIN NAME ISO_TIME NATURE LAT LON WMO_WIND WMO_PRES WMO_AGENCY TRACK_TYPE DIST2LAND LANDFALL IFLAG USA_AGENCY USA_ATCF_ID USA_LAT USA_LON USA_RECORD USA_STATUS USA_WIND USA_PRES USA_SSHS USA_R34_NE USA_R34_SE USA_R34_SW USA_R34_NW USA_R50_NE USA_R50_SE USA_R50_SW USA_R50_NW USA_R64_NE USA_R64_SE USA_R64_SW USA_R64_NW USA_POCI USA_ROCI USA_RMW USA_EYE TOKYO_LAT TOKYO_LON TOKYO_GRADE TOKYO_WIND TOKYO_PRES TOKYO_R50_DIR TOKYO_R50_LONG TOKYO_R50_SHORT TOKYO_R30_DIR TOKYO_R30_LONG TOKYO_R30_SHORT TOKYO_LAND CMA_LAT CMA_LON CMA_CAT CMA_WIND CMA_PRES HKO_LAT HKO_LON HKO_CAT HKO_WIND HKO_PRES NEWDELHI_LAT NEWDELHI_LON NEWDELHI_GRADE NEWDELHI_WIND NEWDELHI_PRES NEWDELHI_CI NEWDELHI_DP NEWDELHI_POCI REUNION_LAT REUNION_LON REUNION_TYPE REUNION_WIND REUNION_PRES REUNION_TNUM REUNION_CI REUNION_RMW REUNION_R34_NE REUNION_R34_SE REUNION_R34_SW REUNION_R34_NW REUNION_R50_NE REUNION_R50_SE REUNION_R50_SW REUNION_R50_NW REUNION_R64_NE REUNION_R64_SE REUNION_R64_SW REUNION_R64_NW BOM_LAT BOM_LON BOM_TYPE BOM_WIND BOM_PRES BOM_TNUM BOM_CI BOM_RMW BOM_R34_NE BOM_R34_SE BOM_R34_SW BOM_R34_NW BOM_R50_NE BOM_R50_SE BOM_R50_SW BOM_R50_NW BOM_R64_NE BOM_R64_SE BOM_R64_SW BOM_R64_NW BOM_ROCI BOM_POCI BOM_EYE BOM_POS_METHOD BOM_PRES_METHOD NADI_LAT NADI_LON NADI_CAT NADI_WIND NADI_PRES WELLINGTON_LAT WELLINGTON_LON WELLINGTON_WIND WELLINGTON_PRES DS824_LAT DS824_LON DS824_STAGE DS824_WIND DS824_PRES TD9636_LAT TD9636_LON TD9636_STAGE TD9636_WIND TD9636_PRES TD9635_LAT TD9635_LON TD9635_WIND TD9635_PRES TD9635_ROCI NEUMANN_LAT NEUMANN_LON NEUMANN_CLASS NEUMANN_WIND NEUMANN_PRES MLC_LAT MLC_LON MLC_CLASS MLC_WIND MLC_PRES USA_GUST BOM_GUST BOM_GUST_PER REUNION_GUST REUNION_GUST_PER USA_SEAHGT USA_SEARAD_NE USA_SEARAD_SE USA_SEARAD_SW USA_SEARAD_NW STORM_SPEED STORM_DIR
1959015S14168 1959 6 SP MM BEATRICE 1959-01-14 23:00:00 NR -14.0000 168.100 main 155 148 __________O___ -1 -14.0000 168.100 1 5 280
1959015S14168 1959 6 SP MM BEATRICE 1959-01-15 00:00:00 TS -13.9854 168.007 main 148 141 O________OP___ jtwc_sh SH111959 -14.0000 168.000 -1 -14.0000 168.000 TC -13.9707 168.014 1 5 288
1959015S14168 1959 6 SP MM BEATRICE 1959-01-15 03:00:00 TS -13.8891 167.754 main 144 139 P________PP___ SH111959 -13.8926 167.750 -1 -13.8926 167.750 TC -13.8845 167.759 1 5 291
1959015S14168 1959 6 SP MM BEATRICE 1959-01-15 06:00:00 TS -13.8019 167.503 main 139 125 O________OP___ jtwc_sh SH111959 -13.8000 167.500 -1 -13.8000 167.500 TC -13.8048 167.507 1 5 288
1959015S14168 1959 6 SP MM BEATRICE 1959-01-15 09:00:00 TS -13.7355 167.253 main 135 124 P________PP___ SH111959 -13.7350 167.250 -1 -13.7350 167.250 TC -13.7366 167.260 1 5 283
1959015S14168 1959 6 SP MM BEATRICE 1959-01-15 11:00:00 TS -13.7055 167.089 main 124 119 P________PO___ SH111959 -13.7083 167.083 -1 -13.7083 167.083 TC -13.7000 167.100 1 5 280
1959015S14168 1959 6 SP MM BEATRICE 1959-01-15 12:00:00 TS -13.6950 167.007 main 119 114 O________OP___ jtwc_sh SH111959 -13.7000 167.000 -1 -13.7000 167.000 TC -13.6851 167.021 1 5 277
1959015S14168 1959 6 SP MM BEATRICE 1959-01-15 15:00:00 TS -13.6672 166.763 main 114 111 P________PP___ SH111959 -13.6700 166.750 -1 -13.6700 166.750 TC -13.6617 166.788 1 5 270
1959015S14168 1959 6 SP MM BEATRICE 1959-01-15 18:00:00 TS -13.6959 166.516 main 112 103 O________OP___ jtwc_sh SH111959 -13.7000 166.500 -1 -13.7000 166.500 TC -13.6877 166.548 1 5 254
1959015S14168 1959 6 SP MM BEATRICE 1959-01-15 21:00:00 TS -13.7982 166.278 main 105 99 P________PP___ SH111959 -13.8049 166.272 -1 -13.8049 166.272 TC -13.7849 166.289 1 6 241
1959015S14168 1959 6 SP MM BEATRICE 1959-01-15 23:00:00 TS -13.9166 166.100 main 104 101 P________PO___ SH111959 -13.9249 166.100 -1 -13.9249 166.100 TC -13.9000 166.100 2 7 235
1959015S14168 1959 6 SP MM BEATRICE 1959-01-16 00:00:00 TS -13.9881 165.994 main 101 101 O________OP___ jtwc_sh SH111959 -14.0000 166.000 -1 -14.0000 166.000 TC -13.9643 165.983 2 9 236
1959015S14168 1959 6 SP MM BEATRICE 1959-01-16 03:00:00 TS -14.2428 165.607 main 117 111 P________PP___ SH111959 -14.2551 165.608 -1 -14.2551 165.608 TC -14.2181 165.606 2 10 237
1959015S14168 1959 6 SP MM BEATRICE 1959-01-16 05:00:00 TS -14.4264 165.310 990 bom main 136 133 P_____O__PP___ SH111959 -14.4750 165.330 -1 -14.0000 165.000 990 -14.4750 165.330 TC -14.4357 165.348 2 10 239
1959015S14168 1959 6 SP MM BEATRICE 1959-01-16 06:00:00 TS -14.5032 165.153 main 143 143 O_____P__OP___ jtwc_sh SH111959 -14.6000 165.200 -1 -14.2317 164.955 -14.6000 165.200 TC -14.5583 165.223 2 10 226
1959015S14168 1959 6 SP MM BEATRICE 1959-01-16 09:00:00 TS -14.8951 164.805 main 183 183 P_____P__PP___ SH111959 -14.9825 164.848 -1 -14.9231 164.822 -14.9825 164.848 TC -14.9784 164.882 2 11 216
1959015S14168 1959 6 SP MM BEATRICE 1959-01-16 11:00:00 TS -15.2111 164.623 main 209 209 P_____P__PO___ SH111959 -15.3079 164.666 -1 -15.3771 164.739 -15.3079 164.666 TC -15.3000 164.700 2 11 205
1959015S14168 1959 6 SP MM BEATRICE 1959-01-16 12:00:00 TS -15.4040 164.560 main 214 214 O_____P__OP___ jtwc_sh SH111959 -15.5000 164.600 -1 -15.6008 164.700 -15.5000 164.600 TC -15.5241 164.642 2 14 191
1959015S14168 1959 6 SP MM BEATRICE 1959-01-16 15:00:00 TS -16.1007 164.444 main 248 248 P_____P__PP___ SH111959 -16.2724 164.512 -1 -16.2544 164.598 -16.2724 164.512 TC -16.2758 164.529 2 14 186
1959015S14168 1959 6 SP MM BEATRICE 1959-01-16 18:00:00 TS -16.8027 164.413 main 282 282 O_____P__OP___ jtwc_sh SH111959 -17.0000 164.500 -1 -16.8734 164.527 -17.0000 164.500 TC -17.0078 164.476 2 13 0
1959015S14168 1959 6 SP MM BEATRICE 1959-01-16 21:00:00 TS -17.4077 164.434 main 314 282 P_____P__PP___ SH111959 -17.4949 164.473 -1 -17.4474 164.495 -17.4949 164.473 TC -17.5419 164.438 2 11 177
1959015S14168 1959 6 SP MM BEATRICE 1959-01-16 23:00:00 TS -17.7026 164.467 994 bom main 282 282 P_____O__PO___ SH111959 -17.6206 164.434 -1 -17.8000 164.500 994 -17.6206 164.434 TC -17.7000 164.400 1 7 177
1959015S14168 1959 6 SP MM BEATRICE 1959-01-17 00:00:00 TS -17.7430 164.453 main 282 270 O_____P__OP___ jtwc_sh SH111959 -17.6000 164.400 -1 -17.9662 164.512 -17.6000 164.400 TC -17.6586 164.345 1 4 328
1959015S14168 1959 6 SP MM BEATRICE 1959-01-17 03:00:00 TS -17.4784 164.318 main 302 302 P_____P__PP___ SH111959 -17.1925 164.207 -1 -18.4260 164.580 -17.1925 164.207 TC -17.2722 164.156 1 13 338
1959015S14168 1959 6 SP MM BEATRICE 1959-01-17 05:00:00 TS -16.7788 164.052 990 bom main 309 308 P_____P__PP___ SH111959 -16.7394 164.063 -1 -18.7022 164.651 -16.7394 164.063 TC -16.8576 164.030 1 20 341
1959015S14168 1959 6 SP MM BEATRICE 1959-01-17 06:00:00 TS -16.5405 163.991 main 304 296 O_____P__OP___ jtwc_sh SH111959 -16.5000 164.000 -1 -18.8320 164.694 -16.5000 164.000 TC -16.6216 163.972 1 14 348
1959015S14168 1959 6 SP MM BEATRICE 1959-01-17 09:00:00 TS -15.8824 163.844 main 305 300 P_____P__PP___ SH111959 -15.8874 163.847 -1 -19.1906 164.844 -15.8874 163.847 TC -15.8723 163.838 1 14 350
1959015S14168 1959 6 SP MM BEATRICE 1959-01-17 11:00:00 TS -15.4260 163.800 main 297 293 P_____P__PO___ SH111959 -15.4390 163.799 -1 -19.4065 164.960 -15.4390 163.799 TC -15.4000 163.800 2 14 357
1959015S14168 1959 6 SP MM BEATRICE 1959-01-17 12:00:00 TS -15.1881 163.802 main 293 280 O_____P__OP___ jtwc_sh SH111959 -15.2000 163.800 -1 -19.5081 165.022 -15.2000 163.800 TC -15.1644 163.807 2 17 5
1959015S14168 1959 6 SP MM BEATRICE 1959-01-17 15:00:00 TS -14.3351 163.901 main 285 280 P_____P__PP___ SH111959 -14.2725 163.906 -1 -19.7908 165.221 -14.2725 163.906 TC -14.4602 163.892 2 15 10
1959015S14168 1959 6 SP MM BEATRICE 1959-01-17 18:00:00 TS -13.6970 164.083 main 286 278 O_____P__OP___ jtwc_sh SH111959 -13.6000 164.100 -1 -20.0449 165.432 -13.6000 164.100 TC -13.8909 164.050 2 9 25
1959015S14168 1959 6 SP MM BEATRICE 1959-01-17 21:00:00 TS -13.5568 164.279 main 272 257 P_____P__PP___ SH111959 -13.5226 164.293 -1 -20.2766 165.646 -13.5226 164.293 TC -13.6252 164.253 2 4 100
1959015S14168 1959 6 SP MM BEATRICE 1959-01-17 23:00:00 TS -13.7559 164.421 981 bom main 252 237 P_____P__PO___ SH111959 -13.7838 164.431 -1 -20.4219 165.787 -13.7838 164.431 TC -13.7000 164.400 2 9 153
1959015S14168 1959 6 SP MM BEATRICE 1959-01-18 00:00:00 TS -13.9520 164.487 main 233 209 O_____P__OP___ jtwc_sh SH111959 -14.0000 164.500 -1 -20.4924 165.856 -14.0000 164.500 TC -13.8561 164.462 2 15 165
1959015S14168 1959 6 SP MM BEATRICE 1959-01-18 02:00:00 TS -14.4833 164.617 981 bom main 207 193 P_____P__PP___ SH111959 -14.5549 164.628 -1 -20.6306 165.989 -14.5549 164.628 TC -14.3401 164.595 2 18 168
1959015S14168 1959 6 SP MM BEATRICE 1959-01-18 03:00:00 TS -14.8232 164.683 main 193 188 P_____P__PP___ SH111959 -14.9076 164.693 -1 -20.6986 166.052 -14.9076 164.693 TC -14.6544 164.665 2 23 170
1959015S14168 1959 6 SP MM BEATRICE 1959-01-18 05:00:00 TS -15.5938 164.822 981 bom main 194 187 P_____P__PP___ SH111959 -15.6940 164.828 -1 -20.8339 166.172 -15.6940 164.828 TC -15.3934 164.812 2 24 170
1959015S14168 1959 6 SP MM BEATRICE 1959-01-18 06:00:00 TS -16.0015 164.896 main 194 194 O_____P__OP___ jtwc_sh SH111959 -16.1000 164.900 -1 -20.9016 166.227 -16.1000 164.900 TC -15.8044 164.889 2 25 170
1959015S14168 1959 6 SP MM BEATRICE 1959-01-18 09:00:00 TS -17.1969 165.129 main 246 242 P_____P__PP___ SH111959 -17.2350 165.128 -1 -21.1077 166.372 -17.2350 165.128 TC -17.1209 165.131 2 25 169
1959015S14168 1959 6 SP MM BEATRICE 1959-01-18 11:00:00 TS -18.0076 165.302 976 bom main 270 242 P_____P__PO___ SH111959 -18.0114 165.303 -1 -21.2501 166.448 -18.0114 165.303 TC -18.0000 165.300 2 25 167
1959015S14168 1959 6 SP MM BEATRICE 1959-01-18 12:00:00 TS -18.3967 165.415 main 232 133 O_____P__OP___ jtwc_sh SH111959 -18.4000 165.400 -1 -21.3234 166.478 -18.4000 165.400 TC -18.3900 165.446 2 30 164
1959015S14168 1959 6 SP MM BEATRICE 1959-01-18 15:00:00 TS -19.9108 165.879 main 124 56 P_____P__PP___ SH111959 -19.5726 165.772 -1 -21.5552 166.538 -19.5726 165.772 TC -19.5762 165.922 2 28 164
1959015S14168 1959 6 SP MM BEATRICE 1959-01-18 18:00:00 TS -21.0491 166.227 main 56 0 O_____P__OP___ jtwc_sh SH111959 -20.7000 166.100 -1 -21.8094 166.541 -20.7000 166.100 TC -20.7319 166.330 2 21 166
1959015S14168 1959 6 SP MM BEATRICE 1959-01-18 21:00:00 TS -21.9220 166.421 main 0 0 P_____P__PP___ SH111959 -21.7890 166.386 -1 -22.0923 166.481 -21.7890 166.386 TC -21.7869 166.501 2 16 174
1959015S14168 1959 6 SP MM BEATRICE 1959-01-18 23:00:00 TS -22.3750 166.386 979 bom main 11 11 P_____O__PO___ SH111959 -22.4253 166.393 -1 -22.3000 166.400 979 -22.4253 166.393 TC -22.4000 166.400 4 13 190
1959015S14168 1959 6 SP MM BEATRICE 1959-01-19 00:00:00 TS -22.5752 166.304 main 35 35 O_____P__OP___ jtwc_sh SH111959 -22.7000 166.300 -1 -22.4299 166.364 979 -22.7000 166.300 TC -22.6601 166.242 4 14 216
1959015S14168 1959 6 SP MM BEATRICE 1959-01-19 03:00:00 TS -23.1046 165.807 main 108 108 P_____P__PP___ SH111959 -23.3248 165.610 -1 -22.8007 166.195 979 -23.3248 165.610 TC -23.3206 165.481 4 15 228
1959015S14168 1959 6 SP MM BEATRICE 1959-01-19 05:00:00 TS -23.3951 165.302 979 bom main 166 166 P_____O__PP___ SH111959 -23.6457 164.898 -1 -23.0000 166.000 979 -23.6457 164.898 TC -23.6834 164.789 4 19 240
1959015S14168 1959 6 SP MM BEATRICE 1959-01-19 06:00:00 TS -23.5730 164.923 main 207 207 O_____P__OP___ jtwc_sh SH111959 -23.8000 164.500 -1 -23.0728 165.873 979 -23.8000 164.500 TC -23.8481 164.403 4 23 246
1959015S14168 1959 6 SP MM BEATRICE 1959-01-19 09:00:00 TS -24.0396 163.756 main 309 309 P_____P__PP___ SH111959 -24.3003 163.259 -1 -23.2217 165.381 980 -24.3003 163.259 TC -24.3040 163.154 4 26 247
1959015S14168 1959 6 SP MM BEATRICE 1959-01-19 11:00:00 TS -24.4360 162.715 982 bom main 403 403 P_____O__PO___ SH111959 -24.6302 162.354 -1 -23.3000 165.000 982 -24.6302 162.354 TC -24.6000 162.300 2 37 246
1959015S14168 1959 6 SP MM BEATRICE 1959-01-19 12:00:00 TS -24.7973 161.896 main 488 488 O_____P__OP___ jtwc_sh SH111959 -24.8000 161.900 -1 -23.3677 164.829 -24.8000 161.900 TC -24.7920 161.889 2 32 245
1959015S14168 1959 6 SP MM BEATRICE 1959-01-19 15:00:00 TS -25.3648 160.568 main 626 608 P_____P__PP___ SH111959 -25.3651 160.548 -1 -23.6107 164.303 -25.3651 160.548 TC -25.3642 160.608 2 26 245
1959015S14168 1959 6 SP EA BEATRICE 1959-01-19 18:00:00 TS -25.8994 159.314 main 600 510 O_____P__OP___ jtwc_sh SH111959 -25.9000 159.300 -1 -23.9067 163.759 -25.9000 159.300 TC -25.8983 159.342 2 23 245
1959015S14168 1959 6 SP EA BEATRICE 1959-01-19 21:00:00 TS -26.3582 158.210 main 496 442 P_____P__PP___ SH111959 -26.3595 158.207 -1 -24.2467 163.194 -26.3595 158.207 TC -26.3555 158.214 2 20 245
1959015S14168 1959 6 SP EA BEATRICE 1959-01-19 23:00:00 TS -26.6020 157.620 982 bom main 433 410 P_____P__PO___ SH111959 -26.6030 157.630 -1 -24.4936 162.805 -26.6030 157.630 TC -26.6000 157.600 2 16 245
1959015S14168 1959 6 SP EA BEATRICE 1959-01-20 00:00:00 TS -26.6968 157.392 main 410 364 O_____P__OP___ jtwc_sh SH111959 -26.7000 157.400 -1 -24.6221 162.606 -26.7000 157.400 TC -26.6905 157.376 2 10 245
1959015S14168 1959 6 SP EA BEATRICE 1959-01-20 03:00:00 TS -26.8864 156.937 main 355 333 P_____P__PP___ SH111959 -26.8863 156.959 -1 -25.0240 161.994 -26.8863 156.959 TC -26.8867 156.893 2 7 245
1959015S14168 1959 6 SP EA BEATRICE 1959-01-20 06:00:00 TS -27.0038 156.666 main 333 301 O_____P__OP___ jtwc_sh SH111959 -27.0000 156.700 -1 -25.4434 161.356 -27.0000 156.700 TC -27.0115 156.598 2 6 244
1959015S14168 1959 6 SP EA BEATRICE 1959-01-20 09:00:00 TS -27.1286 156.367 main 301 279 P_____P__PP___ SH111959 -27.1348 156.365 -1 -25.8715 160.690 -27.1348 156.365 TC -27.1163 156.372 2 6 244
1959015S14168 1959 6 SP EA BEATRICE 1959-01-20 11:00:00 TS -27.2256 156.152 980 bom main 279 256 P_____P__PO___ SH111959 -27.2385 156.128 -1 -26.1573 160.230 -27.2385 156.128 TC -27.2000 156.200 1 7 242
1959015S14168 1959 6 SP EA BEATRICE 1959-01-20 12:00:00 TS -27.2903 156.020 main 256 211 O_____P__OP___ jtwc_sh SH111959 -27.3000 156.000 -1 -26.2993 159.995 -27.3000 156.000 TC -27.2710 156.061 1 9 239
1959015S14168 1959 6 SP EA BEATRICE 1959-01-20 15:00:00 TS -27.5294 155.588 main 211 153 P_____P__PP___ SH111959 -27.5424 155.573 -1 -26.7177 159.269 -27.5424 155.573 TC -27.5033 155.618 1 9 239
1959015S14168 1959 6 SP EA BEATRICE 1959-01-20 18:00:00 TS -27.7816 155.114 main 153 100 O_____P__OP___ jtwc_sh SH111959 -27.8000 155.100 -1 -27.1178 158.512 -27.8000 155.100 TC -27.7447 155.142 1 10 241
1959015S14168 1959 6 SP EA BEATRICE 1959-01-20 21:00:00 TS -28.0051 154.619 main 100 69 P_____P__PP___ SH111959 -28.0224 154.607 -1 -27.4905 157.723 -28.0224 154.607 TC -27.9704 154.642 1 10 245
1959015S14168 1959 6 SP EA BEATRICE 1959-01-20 23:00:00 TS -28.1315 154.280 980 bom main 69 69 P_____P__PO___ SH111959 -28.1473 154.269 -1 -27.7193 157.178 -28.1473 154.269 TC -28.1000 154.300 2 1 300
1959015S14168 1959 6 SP EA BEATRICE 1959-01-21 00:00:00 TS -27.9706 154.552 main 100 72 O_____P__OP___ jtwc_sh SH111959 -28.2000 154.100 -1 -27.8267 156.900 -28.2000 154.100 TC -28.1535 154.135 2 2 0
1959015S14168 1959 6 SP EA BEATRICE 1959-01-21 03:00:00 TS -28.0317 154.264 main 72 19 P_____P__PP___ SH111959 -28.3222 153.607 -1 -28.1173 156.044 -28.3222 153.607 TC -28.2883 153.631 2 7 253
1959015S14168 1959 6 SP EA BEATRICE 1959-01-21 06:00:00 TS -28.1726 153.814 main 19 0 O_____P__OP___ jtwc_sh SH111959 -28.4000 153.100 -1 -28.3533 155.155 -28.4000 153.100 TC -28.3893 153.111 2 10 250
1959015S14168 1959 6 SP EA BEATRICE 1959-01-21 09:00:00 TS -28.3799 153.192 main 0 0 P_____P__PP___ SH111959 -28.4573 152.565 -1 -28.5253 154.233 -28.4573 152.565 TC -28.4629 152.572 2 13 252
1959015S14168 1959 6 SP EA BEATRICE 1959-01-21 11:00:00 TS -28.5085 152.665 986 bom main 0 0 P_____O__PO___ SH111959 -28.4858 152.192 -1 -28.6000 153.600 986 -28.4858 152.192 TC -28.5000 152.200 2 14 255
1959015S14168 1959 6 SP EA BEATRICE 1959-01-21 12:00:00 TS -28.5605 152.427 main 0 0 O_____P__OP___ jtwc_sh SH111959 -28.5000 152.000 -1 -28.6245 153.278 987 -28.5000 152.000 TC -28.5156 152.010 2 13 261
1959015S14168 1959 6 SP EA BEATRICE 1959-01-21 15:00:00 TS -28.6362 151.699 main 0 0 P_____P__PP___ SH111959 -28.5481 151.408 -1 -28.6516 152.295 990 -28.5481 151.408 TC -28.5524 151.425 2 13 266
1959015S14168 1959 6 SP EA BEATRICE 1959-01-21 18:00:00 TS -28.6544 150.983 main 0 0 O_____P__OP___ jtwc_sh SH111959 -28.6000 150.800 -1 -28.6229 151.292 993 -28.6000 150.800 TC -28.5770 150.823 2 13 271
1959015S14168 1959 6 SP EA BEATRICE 1959-01-21 21:00:00 NR -28.6087 150.237 main 0 0 ______P___P___ SH111959 -1 -28.5564 150.278 996 TC -28.5927 150.211 2 14 275
1959015S14168 1959 6 SP EA BEATRICE 1959-01-21 23:00:00 NR -28.5500 149.700 999 bom main 0 ______O___O___ SH111959 -1 -28.5000 149.600 999 TC -28.6000 149.800 2 14 277

デジタル台風データ・検索

IBTrACS Databaseについて

本データベースは、米国NOAAが公開する1842年以降の世界の熱帯低気圧のベストトラックデータアーカイブInternational Best Track Archive for Climate Stewardship (IBTrACS)を、ウェブで閲覧しやすい形式に変換したものです。

最終更新日:2021-11-26